createdAt,value
2018-07-14T00:00:23.868Z,3.03
2018-07-14T00:05:26.039Z,3.40
2018-07-14T00:10:28.151Z,3.13
2018-07-14T00:15:30.374Z,2.30
2018-07-14T00:20:32.512Z,1.77
2018-07-14T00:25:40.315Z,2.00
2018-07-14T00:30:42.540Z,2.00
2018-07-14T00:35:44.675Z,2.03
2018-07-14T00:40:46.904Z,2.07
2018-07-14T00:45:49.048Z,1.63
2018-07-14T00:50:51.155Z,2.33
2018-07-14T00:55:53.331Z,2.50
2018-07-14T01:00:55.491Z,2.33
2018-07-14T01:05:57.620Z,1.97
2018-07-14T01:10:59.746Z,1.77
2018-07-14T01:16:01.940Z,1.77
2018-07-14T01:21:04.106Z,1.50
2018-07-14T01:26:06.327Z,2.87
2018-07-14T01:31:08.508Z,2.20
2018-07-14T01:36:10.677Z,1.77
2018-07-14T01:41:12.816Z,1.57
2018-07-14T01:46:14.953Z,2.13
2018-07-14T01:51:17.087Z,1.50
2018-07-14T01:56:19.261Z,1.80
2018-07-14T02:01:21.383Z,1.50
2018-07-14T02:06:23.510Z,1.73
2018-07-14T02:11:25.619Z,1.90
2018-07-14T02:16:28.034Z,2.13
2018-07-14T02:21:30.224Z,1.70
2018-07-14T02:26:32.362Z,1.80
2018-07-14T02:31:34.771Z,2.20
2018-07-14T02:36:36.904Z,2.23
2018-07-14T02:41:39.069Z,2.30
2018-07-14T02:46:41.216Z,1.60
2018-07-14T02:51:43.335Z,1.67
2018-07-14T02:56:45.446Z,1.80
2018-07-14T03:01:47.586Z,1.97
2018-07-14T03:06:49.728Z,2.10
2018-07-14T03:11:51.879Z,2.00
2018-07-14T03:16:54.046Z,1.80
2018-07-14T03:21:56.176Z,2.20
2018-07-14T03:26:58.305Z,1.90
2018-07-14T03:32:00.448Z,2.20
2018-07-14T03:37:02.562Z,1.90
2018-07-14T03:42:04.779Z,1.87
2018-07-14T03:47:06.897Z,1.50
2018-07-14T03:52:09.087Z,1.90
2018-07-14T03:57:11.232Z,1.83
2018-07-14T04:02:13.384Z,1.80
2018-07-14T04:07:15.536Z,1.70
2018-07-14T04:12:17.686Z,2.13
2018-07-14T04:17:19.859Z,1.80
2018-07-14T04:22:21.989Z,1.50
2018-07-14T04:27:24.123Z,1.63
2018-07-14T04:32:26.244Z,1.60
2018-07-14T04:37:28.379Z,1.83
2018-07-14T04:42:30.619Z,1.90
2018-07-14T04:47:32.695Z,1.90
2018-07-14T04:52:34.888Z,2.00
2018-07-14T04:57:37.015Z,1.60
2018-07-14T05:02:39.125Z,1.50
2018-07-14T05:07:41.251Z,1.83
2018-07-14T05:12:43.376Z,1.47
2018-07-14T05:17:45.542Z,1.50
2018-07-14T05:22:47.705Z,2.10
2018-07-14T05:27:49.823Z,1.80
2018-07-14T05:32:51.945Z,2.07
2018-07-14T05:37:54.095Z,1.30
2018-07-14T05:42:56.259Z,1.20
2018-07-14T05:47:58.385Z,0.77
2018-07-14T05:53:00.613Z,1.03
2018-07-14T05:58:02.806Z,1.50
2018-07-14T06:03:05.418Z,0.90
2018-07-14T06:08:07.695Z,0.80
2018-07-14T06:13:09.881Z,0.80
2018-07-14T06:18:12.105Z,0.70
2018-07-14T06:23:14.346Z,0.90
2018-07-14T06:28:16.525Z,0.87
2018-07-14T06:33:18.678Z,0.70
2018-07-14T06:38:20.828Z,0.90
2018-07-14T06:43:22.952Z,1.00
2018-07-14T06:48:25.092Z,0.90
2018-07-14T06:53:27.240Z,0.97
2018-07-14T06:58:29.423Z,0.60
2018-07-14T07:03:31.560Z,0.67
2018-07-14T07:08:33.863Z,0.70
2018-07-14T07:13:36.073Z,0.80
2018-07-14T07:18:38.226Z,0.53
2018-07-14T07:23:40.484Z,0.60
2018-07-14T07:28:42.621Z,0.67
2018-07-14T07:33:44.790Z,0.70
2018-07-14T07:38:46.943Z,1.00
2018-07-14T07:43:49.164Z,0.73
2018-07-14T07:54:06.496Z,0.60
2018-07-14T07:59:08.736Z,0.80
2018-07-14T08:04:10.847Z,0.60
2018-07-14T08:09:13.009Z,0.70
2018-07-14T08:14:15.144Z,0.57
2018-07-14T08:19:17.309Z,1.40
2018-07-14T08:24:19.464Z,0.70
2018-07-14T08:29:21.702Z,0.80
2018-07-14T08:34:23.883Z,0.60
2018-07-14T08:39:26.077Z,0.60
2018-07-14T08:44:28.241Z,0.80
2018-07-14T08:49:30.446Z,0.93
2018-07-14T08:54:32.693Z,0.80
2018-07-14T08:59:34.967Z,0.60
2018-07-14T09:04:37.233Z,1.03
2018-07-14T09:09:39.476Z,0.80
2018-07-14T09:14:41.770Z,0.80
2018-07-14T09:19:43.954Z,0.90
2018-07-14T09:24:46.158Z,0.87
2018-07-14T09:29:48.343Z,0.80
2018-07-14T09:34:50.619Z,0.87
2018-07-14T09:39:52.797Z,1.00
2018-07-14T09:44:54.974Z,1.13
2018-07-14T09:49:57.141Z,0.70
2018-07-14T09:54:59.300Z,0.90
2018-07-14T10:00:01.546Z,0.67
2018-07-14T10:05:03.802Z,0.70
2018-07-14T10:10:06.115Z,0.63
2018-07-14T10:15:08.500Z,0.80
2018-07-14T10:20:10.790Z,0.50
2018-07-14T10:25:13.113Z,0.70
2018-07-14T10:30:15.239Z,0.90
2018-07-14T10:35:17.422Z,0.80
2018-07-14T10:40:19.575Z,0.90
2018-07-14T10:45:21.792Z,0.57
2018-07-14T10:50:23.947Z,0.60
2018-07-14T10:55:26.164Z,0.40
2018-07-14T11:00:28.341Z,0.60
2018-07-14T11:05:30.559Z,0.70
2018-07-14T11:10:32.719Z,0.53
2018-07-14T11:15:34.931Z,0.70
2018-07-14T11:20:37.115Z,0.60
2018-07-14T11:25:39.285Z,0.60
2018-07-14T11:30:41.462Z,0.77
2018-07-14T11:35:43.654Z,0.90
2018-07-14T11:40:45.853Z,0.50
2018-07-14T11:45:48.039Z,0.70
2018-07-14T11:50:50.250Z,0.77
2018-07-14T11:55:52.422Z,0.60
2018-07-14T12:00:54.646Z,0.90
2018-07-14T12:05:56.779Z,0.60
2018-07-14T12:10:58.943Z,0.60
2018-07-14T12:16:01.155Z,0.90
2018-07-14T12:21:03.386Z,0.60
2018-07-14T12:26:05.587Z,0.70
2018-07-14T12:31:07.768Z,0.50
2018-07-14T12:36:09.969Z,0.80
2018-07-14T12:41:12.326Z,0.83
2018-07-14T12:46:14.511Z,0.97
2018-07-14T12:51:16.726Z,0.60
2018-07-14T12:56:18.878Z,0.57
2018-07-14T13:01:21.071Z,0.70
2018-07-14T13:06:23.304Z,0.53
2018-07-14T13:11:25.465Z,0.60
2018-07-14T13:16:27.641Z,0.60
2018-07-14T13:21:29.808Z,0.90
2018-07-14T13:26:31.980Z,0.50
2018-07-14T13:31:34.421Z,0.67
2018-07-14T13:36:36.628Z,0.60
2018-07-14T13:41:38.814Z,0.80
2018-07-14T13:46:41.005Z,0.60
2018-07-14T13:51:43.183Z,0.90
2018-07-14T13:56:45.366Z,0.60
2018-07-14T14:01:47.563Z,0.50
2018-07-14T14:06:49.712Z,0.60
2018-07-14T14:11:51.932Z,0.60
2018-07-14T14:16:54.239Z,0.50
2018-07-14T14:21:56.482Z,0.60
2018-07-14T14:26:58.745Z,0.80
2018-07-14T14:32:01.023Z,0.70
2018-07-14T14:37:03.250Z,0.60
2018-07-14T14:42:05.404Z,0.63
2018-07-14T14:47:07.611Z,0.50
2018-07-14T14:52:09.783Z,0.80
2018-07-14T14:57:11.982Z,0.60
2018-07-14T15:02:14.172Z,0.80
2018-07-14T15:07:16.382Z,1.40
2018-07-14T15:12:18.580Z,0.87
2018-07-14T15:17:20.831Z,0.70
2018-07-14T15:22:23.050Z,0.83
2018-07-14T15:27:25.299Z,0.80
2018-07-14T15:32:27.481Z,0.70
2018-07-14T15:37:29.633Z,0.90
2018-07-14T15:42:31.794Z,0.70
2018-07-14T15:47:33.975Z,0.70
2018-07-14T15:52:36.304Z,1.13
2018-07-14T15:57:38.517Z,0.83
2018-07-14T16:02:40.758Z,1.57
2018-07-14T16:07:42.948Z,1.57
2018-07-14T16:12:45.135Z,0.77
2018-07-14T16:17:47.376Z,1.00
2018-07-14T16:22:49.569Z,1.10
2018-07-14T16:27:51.743Z,1.20
2018-07-14T16:32:53.932Z,0.97
2018-07-14T16:37:56.121Z,1.00
2018-07-14T16:42:58.730Z,0.87
2018-07-14T16:48:00.945Z,0.87
2018-07-14T16:53:03.170Z,0.83
2018-07-14T16:58:05.811Z,0.90
2018-07-14T17:03:08.024Z,0.80
2018-07-14T17:08:10.566Z,1.00
2018-07-14T17:13:12.746Z,1.40
2018-07-14T17:18:14.951Z,1.00
2018-07-14T17:23:17.220Z,0.90
2018-07-14T17:28:19.385Z,0.97
2018-07-14T17:33:21.600Z,1.00
2018-07-14T17:38:23.774Z,1.53
2018-07-14T17:43:25.988Z,1.23
2018-07-14T17:48:28.542Z,1.50
2018-07-14T17:53:30.760Z,1.07
2018-07-14T17:58:32.975Z,1.83
2018-07-14T18:03:35.135Z,2.00
2018-07-14T18:08:37.326Z,1.40
2018-07-14T18:13:39.511Z,1.50
2018-07-14T18:18:41.714Z,1.47
2018-07-14T18:23:43.987Z,1.30
2018-07-14T18:28:46.222Z,1.30
2018-07-14T18:33:48.448Z,1.57
2018-07-14T18:38:50.654Z,1.70
2018-07-14T18:43:52.920Z,2.27
2018-07-14T18:48:55.145Z,0.97
2018-07-14T18:53:57.394Z,1.17
2018-07-14T18:58:59.580Z,1.73
2018-07-14T19:04:01.795Z,1.27
2018-07-14T19:09:04.916Z,1.60
2018-07-14T19:14:07.146Z,1.70
2018-07-14T19:19:09.344Z,1.80
2018-07-14T19:24:11.608Z,1.60
2018-07-14T19:29:13.980Z,1.90
2018-07-14T19:34:16.188Z,1.80
2018-07-14T19:39:18.409Z,1.77
2018-07-14T19:44:20.643Z,1.37
2018-07-14T19:49:22.850Z,1.90
2018-07-14T19:54:25.156Z,2.53
2018-07-14T19:59:27.368Z,1.70
2018-07-14T20:04:29.591Z,1.50
2018-07-14T20:09:31.888Z,1.70
2018-07-14T20:14:34.088Z,1.77
2018-07-14T20:19:36.340Z,1.83
2018-07-14T20:24:38.566Z,1.83
2018-07-14T20:29:41.055Z,2.17
2018-07-14T20:34:43.331Z,1.83
2018-07-14T20:39:45.712Z,2.00
2018-07-14T20:44:47.924Z,2.00
2018-07-14T20:49:50.125Z,2.70
2018-07-14T20:54:52.296Z,2.10
2018-07-14T20:59:54.479Z,2.40
2018-07-14T21:04:56.662Z,2.20
2018-07-14T21:09:58.850Z,2.57
2018-07-14T21:15:01.074Z,2.57
2018-07-14T21:20:03.296Z,2.50
2018-07-14T21:25:05.814Z,2.50
2018-07-14T21:30:08.000Z,2.57
2018-07-14T21:35:10.185Z,2.17
2018-07-14T21:40:12.436Z,2.53
2018-07-14T21:45:14.587Z,2.37
2018-07-14T21:50:16.787Z,2.57
2018-07-14T21:55:19.037Z,2.73
2018-07-14T22:01:36.894Z,2.27
2018-07-14T22:06:39.096Z,2.53
2018-07-14T22:11:41.454Z,2.70
2018-07-14T22:16:43.617Z,2.37
2018-07-14T22:21:45.783Z,2.57
2018-07-14T22:26:47.979Z,2.97
2018-07-14T22:31:50.223Z,3.20
2018-07-14T22:36:52.415Z,3.03
2018-07-14T22:41:54.574Z,2.80
2018-07-14T22:46:56.759Z,2.50
2018-07-14T22:51:58.972Z,2.33
2018-07-14T22:57:01.207Z,2.70
2018-07-14T23:02:09.448Z,2.47
2018-07-14T23:07:11.644Z,2.80
2018-07-14T23:12:13.840Z,2.57
2018-07-14T23:17:16.002Z,2.93
2018-07-14T23:22:18.155Z,3.47
2018-07-14T23:27:20.397Z,3.50
2018-07-14T23:32:22.647Z,2.80
2018-07-14T23:37:24.855Z,3.60
2018-07-14T23:42:27.011Z,3.67
2018-07-14T23:47:29.164Z,3.47
2018-07-14T23:52:31.304Z,4.07
2018-07-14T23:57:33.435Z,4.03
